Time;durP1;ratioP1;P1;durP2;ratioP2;P2;SDS_P1;SDS_P2;PMS_P1;PMS_P2;Temp;Humidity;BMP_temperature;BMP_pressure;BME280_temperature;BME280_humidity;BME280_pressure;Samples;Min_cycle;Max_cycle;Signal;HPM_P1;HPM_P2
2022/02/17 00:01:42;;;;;;;;;;;;;;;18.79;62.10;100711.50;4985265;28;1593;-32
2022/02/17 00:04:12;;;;;;;;;;;;;;;18.78;62.27;100715.13;4986364;28;1590;-32
2022/02/17 00:06:41;;;;;;;;;;;;;;;18.79;61.47;100717.72;4985723;28;1797;-32
2022/02/17 00:09:15;;;;;;;;;;;;;;;18.76;62.25;100722.47;4981977;28;1596;-32
2022/02/17 00:11:44;;;;;;;;;;;;;;;18.72;62.26;100715.69;4988848;28;1799;-32
2022/02/17 00:14:14;;;;;;;;;;;;;;;18.72;61.75;100721.03;4985758;28;1104;-32
2022/02/17 00:16:41;;;;;;;;;;;;;;;18.72;62.13;100723.72;4982081;28;2004;-32
2022/02/17 00:19:10;;;;;;;;;;;;;;;18.65;62.25;100700.16;4989938;28;1910;-32
2022/02/17 00:21:36;;;;;;;;;;;;;;;18.68;62.35;100715.09;4981495;28;1176;-32
2022/02/17 00:24:04;;;;;;;;;;;;;;;18.65;62.31;100713.53;4988388;28;1889;-32
2022/02/17 00:26:34;;;;;;;;;;;;;;;18.64;62.37;100706.50;4985295;28;1570;-32
2022/02/17 00:29:01;;;;;;;;;;;;;;;18.65;62.22;100715.38;4985666;28;1373;-32
2022/02/17 00:31:29;;;;;;;;;;;;;;;18.63;62.35;100707.47;4985790;28;1826;-32
2022/02/17 00:33:58;;;;;;;;;;;;;;;18.66;62.43;100691.16;4990410;28;1775;-32
2022/02/17 00:36:28;;;;;;;;;;;;;;;18.72;61.41;100699.59;4981943;28;1868;-32
2022/02/17 00:38:58;;;;;;;;;;;;;;;18.87;61.09;100700.97;4989702;28;1911;-32
2022/02/17 00:41:26;;;;;;;;;;;;;;;18.90;61.15;100687.31;4989483;28;1877;-32
2022/02/17 00:43:55;;;;;;;;;;;;;;;19.01;60.98;100687.19;4988398;28;1929;-32
2022/02/17 00:46:22;;;;;;;;;;;;;;;19.01;61.21;100673.78;4986447;28;1944;-32
2022/02/17 00:48:54;;;;;;;;;;;;;;;19.04;61.42;100675.38;4985179;28;1847;-32
2022/02/17 00:51:21;;;;;;;;;;;;;;;19.06;60.98;100678.75;4985674;28;1771;-32
2022/02/17 00:53:50;;;;;;;;;;;;;;;19.06;61.25;100673.38;4991306;28;1801;-32
2022/02/17 00:56:19;;;;;;;;;;;;;;;19.04;60.79;100668.16;4983347;28;1399;-32
2022/02/17 00:58:46;;;;;;;;;;;;;;;19.01;60.71;100657.69;4995545;28;1974;-32
2022/02/17 01:01:13;;;;;;;;;;;;;;;19.01;60.23;100663.06;4979465;28;1765;-32
2022/02/17 01:03:42;;;;;;;;;;;;;;;19.02;60.21;100667.44;4987454;28;1875;-31
2022/02/17 01:06:12;;;;;;;;;;;;;;;18.96;60.69;100659.97;4986907;28;1745;-32
2022/02/17 01:08:40;;;;;;;;;;;;;;;18.96;60.47;100665.31;4982739;28;1767;-32
2022/02/17 01:11:09;;;;;;;;;;;;;;;18.92;61.33;100663.91;4980819;28;1823;-32
2022/02/17 01:13:38;;;;;;;;;;;;;;;18.87;60.71;100666.13;4995323;28;1075;-32
2022/02/17 01:16:07;;;;;;;;;;;;;;;18.91;60.59;100670.25;4989739;28;1820;-32
2022/02/17 01:18:34;;;;;;;;;;;;;;;18.99;59.94;100667.72;4983076;28;1786;-31
2022/02/17 01:21:01;;;;;;;;;;;;;;;18.94;60.54;100656.59;4985923;28;1906;-32
2022/02/17 01:23:34;;;;;;;;;;;;;;;18.83;61.00;100662.88;4986751;28;1832;-32
2022/02/17 01:26:03;;;;;;;;;;;;;;;18.78;60.97;100656.19;4982637;28;1757;-32
2022/02/17 01:28:40;;;;;;;;;;;;;;;18.77;61.22;100650.00;4989233;28;1821;-32
2022/02/17 01:31:08;;;;;;;;;;;;;;;18.76;60.84;100653.69;4978883;28;1969;-32
2022/02/17 01:33:36;;;;;;;;;;;;;;;18.72;60.70;100649.59;4992952;28;1603;-32
2022/02/17 01:36:06;;;;;;;;;;;;;;;18.73;60.81;100653.09;4988668;28;1712;-32
2022/02/17 01:38:40;;;;;;;;;;;;;;;18.71;60.53;100652.38;4984070;28;1811;-32
2022/02/17 01:41:07;;;;;;;;;;;;;;;18.66;60.62;100648.28;4985334;28;1967;-32
2022/02/17 01:43:43;;;;;;;;;;;;;;;18.63;60.43;100656.59;4986080;28;1069;-32
2022/02/17 01:46:12;;;;;;;;;;;;;;;18.65;60.95;100646.59;4987893;28;2005;-32
2022/02/17 01:48:40;;;;;;;;;;;;;;;18.59;61.06;100633.75;4979162;28;1960;-32
2022/02/17 01:51:07;;;;;;;;;;;;;;;18.61;60.55;100633.59;4992058;28;1836;-32
2022/02/17 01:53:34;;;;;;;;;;;;;;;18.61;60.66;100645.16;4990138;28;1728;-32
2022/02/17 01:56:06;;;;;;;;;;;;;;;18.60;61.01;100631.91;4985371;28;1704;-33
2022/02/17 01:58:37;;;;;;;;;;;;;;;18.56;61.32;100628.69;4983543;28;1096;-32
2022/02/17 02:01:04;;;;;;;;;;;;;;;18.58;61.22;100634.75;4981157;28;2034;-32
2022/02/17 02:03:30;;;;;;;;;;;;;;;18.59;61.03;100636.41;4992261;28;1850;-32
2022/02/17 02:06:01;;;;;;;;;;;;;;;18.58;61.04;100634.75;4977147;28;1688;-32
2022/02/17 02:08:31;;;;;;;;;;;;;;;18.53;61.19;100636.97;4988978;28;1834;-32
2022/02/17 02:11:03;;;;;;;;;;;;;;;18.55;60.25;100644.88;4981444;28;1700;-32
2022/02/17 02:13:36;;;;;;;;;;;;;;;18.54;60.88;100643.16;4992978;28;1065;-32
2022/02/17 02:16:06;;;;;;;;;;;;;;;18.52;60.92;100632.56;4990827;28;1801;-32
2022/02/17 02:18:33;;;;;;;;;;;;;;;18.52;60.89;100635.25;4975509;28;1663;-32
2022/02/17 02:21:06;;;;;;;;;;;;;;;18.53;60.80;100639.63;4983258;28;1969;-32
2022/02/17 02:23:49;;;;;;;;;;;;;;;18.49;60.83;100625.66;4979767;28;2001;-32
2022/02/17 02:26:16;;;;;;;;;;;;;;;18.51;60.61;100633.56;4988663;28;2044;-31
2022/02/17 02:28:45;;;;;;;;;;;;;;;18.51;61.09;100616.66;4985433;28;1801;-31
2022/02/17 02:31:15;;;;;;;;;;;;;;;18.51;61.05;100638.09;4992590;28;1915;-32
2022/02/17 02:33:47;;;;;;;;;;;;;;;18.47;61.38;100635.66;4978217;28;1778;-32
2022/02/17 02:36:20;;;;;;;;;;;;;;;18.47;61.16;100624.13;4991749;28;1853;-32
2022/02/17 02:38:50;;;;;;;;;;;;;;;18.46;61.17;100630.44;4991035;28;1994;-32
2022/02/17 02:41:19;;;;;;;;;;;;;;;18.43;61.49;100634.25;4977628;28;1902;-32
2022/02/17 02:43:46;;;;;;;;;;;;;;;18.45;61.09;100642.16;4987234;28;1072;-32
2022/02/17 02:46:15;;;;;;;;;;;;;;;18.41;61.21;100630.84;4976924;28;1774;-32
2022/02/17 02:48:45;;;;;;;;;;;;;;;18.40;61.10;100614.91;4980527;28;1374;-32
2022/02/17 02:51:14;;;;;;;;;;;;;;;18.37;61.24;100623.25;4981315;28;1729;-32
2022/02/17 02:53:51;;;;;;;;;;;;;;;18.40;61.18;100625.63;4982214;28;1690;-32
2022/02/17 02:56:19;;;;;;;;;;;;;;;18.37;60.91;100612.53;4980943;28;1847;-32
2022/02/17 02:58:45;;;;;;;;;;;;;;;18.39;60.97;100613.25;4987012;28;1111;-32
2022/02/17 03:01:12;;;;;;;;;;;;;;;18.37;61.00;100615.22;5104850;22;3421;-32
2022/02/17 03:03:39;;;;;;;;;;;;;;;18.39;60.70;100626.63;4997263;28;1810;-32
2022/02/17 03:06:10;;;;;;;;;;;;;;;18.48;61.01;100612.41;4993991;28;1634;-33
2022/02/17 03:08:39;;;;;;;;;;;;;;;18.55;59.87;100592.16;4994234;28;1068;-32
2022/02/17 03:11:18;;;;;;;;;;;;;;;18.64;60.73;100599.38;4999825;28;1744;-32
2022/02/17 03:13:47;;;;;;;;;;;;;;;18.76;60.35;100604.59;5002423;28;1631;-32
2022/02/17 03:16:14;;;;;;;;;;;;;;;18.82;60.00;100614.78;5011198;28;1676;-33
2022/02/17 03:18:44;;;;;;;;;;;;;;;18.83;59.85;100608.47;4995145;28;1424;-32
2022/02/17 03:21:11;;;;;;;;;;;;;;;18.84;60.26;100591.38;5002150;28;1969;-32
2022/02/17 03:23:41;;;;;;;;;;;;;;;18.86;59.74;100600.13;4998140;28;1620;-32
2022/02/17 03:26:11;;;;;;;;;;;;;;;18.83;59.46;100589.72;4999505;28;1452;-32
2022/02/17 03:28:40;;;;;;;;;;;;;;;18.83;59.62;100589.72;4994678;28;2115;-32
2022/02/17 03:33:50;;;;;;;;;;;;;;;18.78;59.15;100602.63;5001507;28;2470;-32
2022/02/17 03:36:17;;;;;;;;;;;;;;;18.74;59.77;100588.69;5004082;28;1622;-32
2022/02/17 03:38:44;;;;;;;;;;;;;;;18.76;59.14;100601.91;5000345;28;1933;-32
2022/02/17 03:41:19;;;;;;;;;;;;;;;18.71;59.31;100594.31;5005988;28;1910;-32
2022/02/17 03:43:47;;;;;;;;;;;;;;;18.63;59.72;100578.91;5010177;28;1066;-32
2022/02/17 03:46:17;;;;;;;;;;;;;;;18.65;59.94;100586.81;4999201;28;1293;-33
2022/02/17 03:48:43;;;;;;;;;;;;;;;18.69;59.83;100573.00;5010458;28;1344;-32
2022/02/17 03:51:13;;;;;;;;;;;;;;;18.73;59.71;100581.63;5012329;28;1597;-32
2022/02/17 03:53:43;;;;;;;;;;;;;;;18.71;59.89;100580.06;5011095;28;1241;-32
2022/02/17 03:56:15;;;;;;;;;;;;;;;18.65;59.84;100566.22;5010772;28;1799;-32
2022/02/17 04:01:25;;;;;;;;;;;;;;;18.57;59.68;100586.66;5011551;28;1993;-32
2022/02/17 04:03:58;;;;;;;;;;;;;;;18.60;59.13;100589.06;5003869;28;1567;-32
2022/02/17 04:06:26;;;;;;;;;;;;;;;18.65;59.70;100590.34;5004451;28;1473;-32
2022/02/17 04:09:12;;;;;;;;;;;;;;;18.62;60.01;100582.59;4996299;28;1424;-33
2022/02/17 04:11:46;;;;;;;;;;;;;;;18.60;59.87;100578.34;4995649;28;1954;-32
2022/02/17 04:14:20;;;;;;;;;;;;;;;18.62;60.08;100565.66;5008378;28;1077;-32
2022/02/17 04:16:50;;;;;;;;;;;;;;;18.61;60.20;100569.34;4999845;28;1386;-32
2022/02/17 04:19:19;;;;;;;;;;;;;;;18.66;60.05;100573.28;5004606;28;1773;-33
2022/02/17 04:21:46;;;;;;;;;;;;;;;18.61;60.26;100559.47;5015138;28;1910;-33
2022/02/17 04:24:15;;;;;;;;;;;;;;;18.56;60.42;100556.38;5014007;28;1581;-32
2022/02/17 04:26:47;;;;;;;;;;;;;;;18.53;60.08;100553.09;5008841;28;1356;-32
2022/02/17 04:29:17;;;;;;;;;;;;;;;18.53;60.24;100540.56;5000043;28;1903;-32
2022/02/17 04:31:45;;;;;;;;;;;;;;;18.54;60.05;100546.75;5002116;28;1466;-32
2022/02/17 04:34:14;;;;;;;;;;;;;;;18.53;59.64;100532.53;5003844;28;1578;-32
2022/02/17 04:36:44;;;;;;;;;;;;;;;18.53;60.20;100537.03;5009195;28;1894;-32
2022/02/17 04:39:12;;;;;;;;;;;;;;;18.49;60.19;100536.47;5009478;28;1695;-32
2022/02/17 04:44:26;;;;;;;;;;;;;;;18.44;60.13;100517.28;5015420;28;875;-32
2022/02/17 04:46:56;;;;;;;;;;;;;;;18.42;60.03;100513.88;5007562;28;1974;-32
2022/02/17 04:49:24;;;;;;;;;;;;;;;18.41;59.99;100507.69;5004187;28;1850;-32
2022/02/17 04:51:50;;;;;;;;;;;;;;;18.40;60.00;100503.34;5006313;28;1767;-32
2022/02/17 04:57:00;;;;;;;;;;;;;;;18.39;59.67;100500.81;5009861;28;2461;-32
2022/02/17 04:59:32;;;;;;;;;;;;;;;18.37;60.07;100487.53;5002891;28;1003;-32
2022/02/17 05:02:00;;;;;;;;;;;;;;;18.38;59.44;100501.78;5001287;28;1990;-32
2022/02/17 05:04:29;;;;;;;;;;;;;;;18.34;59.83;100486.97;5011628;28;1495;-32
2022/02/17 05:06:59;;;;;;;;;;;;;;;18.33;59.81;100501.34;5013219;28;1716;-32
2022/02/17 05:09:29;;;;;;;;;;;;;;;18.34;59.67;100508.38;5012499;28;1396;-32
2022/02/17 05:11:57;;;;;;;;;;;;;;;18.34;59.85;100497.69;5006158;28;1075;-32
2022/02/17 05:14:27;;;;;;;;;;;;;;;18.37;59.95;100492.91;5013214;28;1952;-32
2022/02/17 05:16:59;;;;;;;;;;;;;;;18.37;59.60;100492.06;5006250;28;1610;-32
2022/02/17 05:19:28;;;;;;;;;;;;;;;18.42;59.61;100500.50;5012021;28;1747;-32
2022/02/17 05:21:57;;;;;;;;;;;;;;;18.38;59.59;100509.81;5014585;28;1906;-32
2022/02/17 05:24:25;;;;;;;;;;;;;;;18.38;59.50;100512.47;5003097;28;1904;-33
2022/02/17 05:26:54;;;;;;;;;;;;;;;18.36;60.02;100503.75;5009611;28;1719;-32
2022/02/17 05:29:22;;;;;;;;;;;;;;;18.41;58.50;100499.66;4999146;28;1738;-32
2022/02/17 05:31:49;;;;;;;;;;;;;;;19.07;58.38;100490.97;5001684;28;1470;-32
2022/02/17 05:34:18;;;;;;;;;;;;;;;19.91;55.40;100491.22;5001323;28;1608;-33
2022/02/17 05:36:44;;;;;;;;;;;;;;;20.15;56.90;100479.94;5005192;28;1797;-32
2022/02/17 05:42:00;;;;;;;;;;;;;;;20.52;56.48;100493.25;4996131;28;2016;-31
2022/02/17 05:44:26;;;;;;;;;;;;;;;20.26;55.86;100494.00;5007155;28;1313;-32
2022/02/17 05:46:53;;;;;;;;;;;;;;;20.37;55.87;100490.28;5001793;28;1595;-33
2022/02/17 05:49:20;;;;;;;;;;;;;;;20.21;56.24;100493.63;5005191;28;1791;-31
2022/02/17 05:52:00;;;;;;;;;;;;;;;20.24;56.11;100495.97;4999797;28;1755;-32
2022/02/17 05:54:27;;;;;;;;;;;;;;;20.31;56.15;100500.75;5005788;28;1511;-32
2022/02/17 05:56:55;;;;;;;;;;;;;;;20.37;56.99;100489.41;4998595;28;1063;-33
2022/02/17 05:59:24;;;;;;;;;;;;;;;20.36;56.89;100487.72;4996446;28;1509;-32
2022/02/17 06:01:51;;;;;;;;;;;;;;;20.74;57.24;100501.91;5006947;28;1910;-32
2022/02/17 06:04:22;;;;;;;;;;;;;;;20.36;57.79;100472.44;5002226;28;1368;-32
2022/02/17 06:06:49;;;;;;;;;;;;;;;20.28;58.59;100480.44;4998856;28;1707;-31
2022/02/17 06:09:18;;;;;;;;;;;;;;;20.33;58.31;100479.97;5007340;28;1689;-32
2022/02/17 06:11:46;;;;;;;;;;;;;;;20.17;58.55;100478.78;5004664;28;1403;-32
2022/02/17 06:14:16;;;;;;;;;;;;;;;20.11;58.10;100482.06;5006044;28;1159;-32
2022/02/17 06:16:45;;;;;;;;;;;;;;;20.09;58.10;100488.59;5010667;28;1384;-32
2022/02/17 06:19:13;;;;;;;;;;;;;;;20.00;58.07;100476.91;5008124;28;1459;-32
2022/02/17 06:21:46;;;;;;;;;;;;;;;19.96;59.42;100480.91;4997804;28;1902;-34
2022/02/17 06:24:15;;;;;;;;;;;;;;;19.94;59.33;100477.50;5007826;28;1943;-32
2022/02/17 06:26:44;;;;;;;;;;;;;;;19.95;58.62;100463.91;5008458;28;1673;-31
2022/02/17 06:29:13;;;;;;;;;;;;;;;19.86;59.04;100475.56;5009463;28;1438;-31
2022/02/17 06:31:47;;;;;;;;;;;;;;;19.90;59.33;100470.75;5006035;28;1967;-31
2022/02/17 06:34:16;;;;;;;;;;;;;;;19.82;59.29;100466.97;5006868;28;1595;-31
2022/02/17 06:36:48;;;;;;;;;;;;;;;19.85;58.40;100461.28;5010670;28;1498;-32
2022/02/17 06:44:42;;;;;;;;;;;;;;;19.73;58.67;100451.75;5008304;28;2450;-32
2022/02/17 06:47:09;;;;;;;;;;;;;;;19.68;58.98;100454.84;5000387;28;1831;-32
2022/02/17 06:49:36;;;;;;;;;;;;;;;19.82;59.96;100458.91;5010213;28;1766;-32
2022/02/17 06:52:06;;;;;;;;;;;;;;;19.94;59.74;100466.78;5006898;28;1845;-32
2022/02/17 06:54:35;;;;;;;;;;;;;;;19.81;59.24;100449.16;5004795;28;1794;-32
2022/02/17 06:57:02;;;;;;;;;;;;;;;19.81;59.74;100454.53;5008463;28;1359;-32
2022/02/17 06:59:33;;;;;;;;;;;;;;;19.77;58.77;100453.13;5013370;28;1088;-32
2022/02/17 07:02:01;;;;;;;;;;;;;;;19.70;59.93;100460.06;5004112;28;1965;-32
2022/02/17 07:04:28;;;;;;;;;;;;;;;19.73;59.68;100451.75;5000207;28;1439;-32
2022/02/17 07:06:57;;;;;;;;;;;;;;;19.79;59.57;100436.91;5007233;28;1543;-32
2022/02/17 07:09:29;;;;;;;;;;;;;;;19.84;59.38;100446.19;5008903;28;1783;-32
2022/02/17 07:11:57;;;;;;;;;;;;;;;19.85;58.64;100426.41;4998206;28;1625;-32
2022/02/17 07:14:24;;;;;;;;;;;;;;;19.81;59.52;100414.28;5017365;28;1895;-33
2022/02/17 07:16:53;;;;;;;;;;;;;;;19.70;58.98;100411.78;5011473;28;1764;-33
2022/02/17 07:19:30;;;;;;;;;;;;;;;19.66;59.24;100415.75;5008195;28;1390;-32
2022/02/17 07:21:57;;;;;;;;;;;;;;;19.83;60.14;100416.81;5017116;28;1981;-32
2022/02/17 07:24:26;;;;;;;;;;;;;;;19.82;59.91;100413.28;5003508;28;1711;-32
2022/02/17 07:27:09;;;;;;;;;;;;;;;19.80;58.70;100403.72;5004106;28;1780;-33
2022/02/17 07:29:46;;;;;;;;;;;;;;;19.81;58.81;100397.34;5004119;28;1759;-33
2022/02/17 07:32:15;;;;;;;;;;;;;;;19.81;58.96;100398.19;5000799;28;1593;-33
2022/02/17 07:34:45;;;;;;;;;;;;;;;19.67;59.77;100391.44;5001359;28;1411;-33
2022/02/17 07:37:16;;;;;;;;;;;;;;;19.73;59.60;100384.66;5009878;28;1676;-33
2022/02/17 07:39:47;;;;;;;;;;;;;;;19.73;59.86;100382.00;5013146;28;1851;-33
2022/02/17 07:42:18;;;;;;;;;;;;;;;19.75;59.67;100388.03;5010402;28;1971;-33
2022/02/17 07:44:52;;;;;;;;;;;;;;;19.71;59.17;100370.56;5010726;28;1229;-33
2022/02/17 07:47:21;;;;;;;;;;;;;;;19.76;58.79;100388.91;5012536;28;1431;-33
2022/02/17 07:49:56;;;;;;;;;;;;;;;19.63;60.41;100386.53;5015025;28;1846;-33
2022/02/17 07:52:23;;;;;;;;;;;;;;;19.68;59.70;100381.56;5010368;28;1800;-33
2022/02/17 07:54:50;;;;;;;;;;;;;;;19.65;59.09;100379.19;5008297;28;1795;-33
2022/02/17 07:57:29;;;;;;;;;;;;;;;19.70;59.47;100390.31;5002511;28;1791;-33
2022/02/17 08:00:00;;;;;;;;;;;;;;;19.85;58.59;100386.16;5002179;28;1540;-32
2022/02/17 08:02:29;;;;;;;;;;;;;;;19.87;59.48;100369.91;5011762;28;1975;-32
2022/02/17 08:04:59;;;;;;;;;;;;;;;19.84;59.94;100375.59;5009614;28;1838;-33
2022/02/17 08:07:31;;;;;;;;;;;;;;;19.89;59.55;100377.81;5008570;28;1504;-32
2022/02/17 08:10:00;;;;;;;;;;;;;;;19.95;59.69;100366.47;5010178;28;1665;-33
2022/02/17 08:12:29;;;;;;;;;;;;;;;20.02;58.66;100352.28;5012856;28;1923;-33
2022/02/17 08:15:02;;;;;;;;;;;;;;;19.97;59.71;100348.38;5006334;28;1486;-33
2022/02/17 08:17:28;;;;;;;;;;;;;;;20.00;59.38;100359.66;5009466;28;1780;-32
2022/02/17 08:19:58;;;;;;;;;;;;;;;19.99;59.89;100351.75;5004425;28;1842;-33
2022/02/17 08:22:25;;;;;;;;;;;;;;;19.94;59.59;100348.69;5008755;28;1902;-33
2022/02/17 08:27:41;;;;;;;;;;;;;;;19.94;60.45;100341.47;5011153;28;1867;-32
2022/02/17 08:30:14;;;;;;;;;;;;;;;20.02;58.72;100348.78;5009534;28;1486;-33
2022/02/17 08:32:43;;;;;;;;;;;;;;;20.03;59.08;100331.66;5004467;28;1274;-33
2022/02/17 08:35:11;;;;;;;;;;;;;;;20.02;60.85;100336.19;5009393;28;1779;-33
2022/02/17 08:37:38;;;;;;;;;;;;;;;20.02;59.86;100343.41;5009458;28;1525;-32
2022/02/17 08:40:05;;;;;;;;;;;;;;;20.16;59.04;100324.06;5007655;28;1691;-33
2022/02/17 08:42:34;;;;;;;;;;;;;;;20.09;60.14;100331.03;5005063;28;1902;-33
2022/02/17 08:45:03;;;;;;;;;;;;;;;20.04;59.72;100338.72;4999801;28;1173;-32
2022/02/17 08:47:37;;;;;;;;;;;;;;;20.09;58.98;100344.47;5013122;28;1717;-32
2022/02/17 08:50:04;;;;;;;;;;;;;;;20.06;59.64;100321.47;5003256;28;1803;-33
2022/02/17 08:52:30;;;;;;;;;;;;;;;20.01;59.19;100326.44;5001078;28;1595;-32
2022/02/17 08:55:01;;;;;;;;;;;;;;;20.04;60.17;100307.34;5008463;28;1292;-33
2022/02/17 08:57:27;;;;;;;;;;;;;;;20.13;59.75;100321.69;5007679;28;1610;-32
2022/02/17 08:59:57;;;;;;;;;;;;;;;20.09;60.24;100317.63;5007436;28;1462;-32
2022/02/17 09:02:27;;;;;;;;;;;;;;;20.22;59.38;100309.19;5004967;28;1898;-33
2022/02/17 09:04:57;;;;;;;;;;;;;;;20.05;59.79;100302.81;5013099;28;1835;-33
2022/02/17 09:07:27;;;;;;;;;;;;;;;19.96;60.07;100303.75;5013176;28;1794;-32
2022/02/17 09:09:56;;;;;;;;;;;;;;;19.94;58.85;100290.50;4999131;28;1584;-32
2022/02/17 09:12:25;;;;;;;;;;;;;;;19.95;59.98;100288.66;5001026;28;1727;-33
2022/02/17 09:14:51;;;;;;;;;;;;;;;19.96;59.87;100276.94;4995350;28;1008;-33
2022/02/17 09:17:21;;;;;;;;;;;;;;;20.00;60.04;100286.34;4999479;28;1564;-33
2022/02/17 09:19:51;;;;;;;;;;;;;;;19.99;59.76;100276.59;5006420;28;1752;-32
2022/02/17 09:22:26;;;;;;;;;;;;;;;19.97;58.91;100262.50;4994970;28;1898;-33
2022/02/17 09:24:56;;;;;;;;;;;;;;;19.97;60.18;100263.34;5007922;28;1103;-33
2022/02/17 09:27:27;;;;;;;;;;;;;;;20.07;59.78;100257.88;4994859;28;1218;-33
2022/02/17 09:29:57;;;;;;;;;;;;;;;20.02;58.86;100252.16;5011148;28;1812;-32
2022/02/17 09:32:27;;;;;;;;;;;;;;;20.01;59.78;100253.13;4999200;28;1214;-32
2022/02/17 09:34:57;;;;;;;;;;;;;;;19.92;59.45;100232.63;5005082;28;1823;-32
2022/02/17 09:37:32;;;;;;;;;;;;;;;20.05;59.05;100231.22;5007336;28;1237;-32
2022/02/17 09:39:59;;;;;;;;;;;;;;;20.09;59.52;100229.03;5005472;28;1606;-32
2022/02/17 09:42:32;;;;;;;;;;;;;;;20.02;58.93;100228.84;5007828;28;1903;-33
2022/02/17 09:47:44;;;;;;;;;;;;;;;20.14;59.89;100216.00;5001114;28;1584;-32
2022/02/17 09:50:16;;;;;;;;;;;;;;;20.22;58.36;100229.50;5005495;28;1800;-32
2022/02/17 09:52:48;;;;;;;;;;;;;;;20.16;59.56;100223.91;4999610;28;1992;-32
2022/02/17 09:55:16;;;;;;;;;;;;;;;20.16;58.47;100203.28;4998595;28;1630;-33
2022/02/17 09:57:44;;;;;;;;;;;;;;;20.13;59.02;100200.88;5006867;28;1720;-32
2022/02/17 10:00:13;;;;;;;;;;;;;;;20.16;59.29;100202.44;4998308;28;1272;-32
2022/02/17 10:02:40;;;;;;;;;;;;;;;20.14;58.66;100205.28;5009809;28;1980;-32
2022/02/17 10:05:11;;;;;;;;;;;;;;;20.25;58.19;100206.84;5006486;28;1815;-32
2022/02/17 10:07:46;;;;;;;;;;;;;;;20.16;59.06;100197.91;5005591;28;1731;-32
2022/02/17 10:10:21;;;;;;;;;;;;;;;20.11;58.95;100186.78;5002477;28;1946;-32
2022/02/17 10:12:55;;;;;;;;;;;;;;;20.14;58.78;100193.69;5007950;28;1697;-33
2022/02/17 10:15:31;;;;;;;;;;;;;;;20.13;58.74;100195.53;5012186;28;1819;-33
2022/02/17 10:18:01;;;;;;;;;;;;;;;20.07;60.00;100166.63;4996157;28;1238;-32
2022/02/17 10:20:28;;;;;;;;;;;;;;;20.10;59.96;100182.44;5007143;28;1108;-32
2022/02/17 10:23:06;;;;;;;;;;;;;;;20.08;59.90;100157.59;5011970;28;1967;-33
2022/02/17 10:25:38;;;;;;;;;;;;;;;20.03;59.53;100166.13;5006444;28;1401;-33
2022/02/17 10:28:15;;;;;;;;;;;;;;;20.09;59.98;100143.16;4998534;28;1233;-32
2022/02/17 10:30:42;;;;;;;;;;;;;;;20.09;59.93;100147.69;4994681;28;1748;-33
2022/02/17 10:33:08;;;;;;;;;;;;;;;20.01;60.23;100132.38;5011840;28;1455;-32
2022/02/17 10:35:42;;;;;;;;;;;;;;;20.12;59.04;100140.16;5011186;28;1089;-32
2022/02/17 10:38:21;;;;;;;;;;;;;;;20.16;58.78;100125.44;5016901;28;1135;-32
2022/02/17 10:40:54;;;;;;;;;;;;;;;20.03;60.07;100133.91;5006807;28;1590;-32
2022/02/17 10:43:31;;;;;;;;;;;;;;;19.97;59.33;100131.84;5003239;28;1902;-32
2022/02/17 10:46:05;;;;;;;;;;;;;;;19.95;60.27;100133.00;5011254;28;1842;-32
2022/02/17 10:48:34;;;;;;;;;;;;;;;19.98;60.46;100116.59;5002804;28;1707;-32
2022/02/17 10:51:05;;;;;;;;;;;;;;;20.03;60.19;100103.53;5014853;28;1880;-33
2022/02/17 10:53:35;;;;;;;;;;;;;;;19.92;59.42;100120.75;5004724;28;1624;-33
2022/02/17 10:56:05;;;;;;;;;;;;;;;19.93;60.57;100105.47;5009218;28;1646;-33
2022/02/17 10:58:34;;;;;;;;;;;;;;;20.00;59.76;100095.81;5013949;28;1127;-33
2022/02/17 11:01:02;;;;;;;;;;;;;;;19.96;59.45;100110.53;4999754;28;1800;-32
2022/02/17 11:03:30;;;;;;;;;;;;;;;20.00;59.98;100090.44;5006461;28;1980;-33
2022/02/17 11:05:57;;;;;;;;;;;;;;;19.95;59.09;100098.09;5004428;28;1082;-32
2022/02/17 11:08:26;;;;;;;;;;;;;;;19.95;60.37;100085.53;5012005;28;1285;-32
2022/02/17 11:10:52;;;;;;;;;;;;;;;20.05;59.88;100083.59;5001652;28;1706;-32
2022/02/17 11:13:25;;;;;;;;;;;;;;;19.93;60.39;100073.28;5008552;28;1752;-32
2022/02/17 11:15:52;;;;;;;;;;;;;;;19.89;60.14;100078.09;5002089;28;1610;-33
2022/02/17 11:18:40;;;;;;;;;;;;;;;19.93;60.07;100067.91;5006301;28;1695;-32
2022/02/17 11:21:08;;;;;;;;;;;;;;;19.90;60.52;100079.81;4998461;28;1126;-33
2022/02/17 11:23:35;;;;;;;;;;;;;;;19.89;59.76;100064.69;4996972;28;1997;-32
2022/02/17 11:26:03;;;;;;;;;;;;;;;19.89;60.37;100062.00;4997914;28;1827;-32
2022/02/17 11:28:35;;;;;;;;;;;;;;;19.84;60.24;100056.28;5001227;28;1691;-32
2022/02/17 11:31:03;;;;;;;;;;;;;;;19.80;59.93;100061.13;5016250;28;1489;-32
2022/02/17 11:33:39;;;;;;;;;;;;;;;19.83;60.41;100052.75;5001241;28;1465;-32
2022/02/17 11:36:30;;;;;;;;;;;;;;;19.80;60.45;100036.16;5007642;28;1637;-33
2022/02/17 11:39:03;;;;;;;;;;;;;;;19.79;59.82;100035.28;5012153;28;1621;-32
2022/02/17 11:41:38;;;;;;;;;;;;;;;19.86;60.56;100036.34;5012256;28;1270;-33
2022/02/17 11:44:16;;;;;;;;;;;;;;;19.89;60.60;100035.19;5007805;28;1910;-32
2022/02/17 11:46:48;;;;;;;;;;;;;;;19.80;59.90;100017.38;5012853;28;1658;-32
2022/02/17 11:49:35;;;;;;;;;;;;;;;19.88;60.59;100017.41;5005117;28;1617;-32
2022/02/17 11:52:26;;;;;;;;;;;;;;;19.93;59.40;100014.25;5004769;28;1326;-32
2022/02/17 11:55:17;;;;;;;;;;;;;;;19.84;60.66;100000.78;5003520;28;1466;-32
2022/02/17 11:57:44;;;;;;;;;;;;;;;19.87;60.43;99994.25;5008671;28;1371;-33
2022/02/17 12:00:35;;;;;;;;;;;;;;;19.81;60.30;99995.72;4997652;28;1629;-34
2022/02/17 12:03:06;;;;;;;;;;;;;;;19.76;60.80;99981.97;5006964;28;1903;-32
2022/02/17 12:05:35;;;;;;;;;;;;;;;19.72;60.90;99982.47;5005666;28;1971;-32
2022/02/17 12:08:29;;;;;;;;;;;;;;;19.69;60.68;99988.94;5001887;28;1690;-33
2022/02/17 12:11:13;;;;;;;;;;;;;;;19.74;60.65;99983.13;4999548;28;1473;-33
2022/02/17 12:13:43;;;;;;;;;;;;;;;19.72;60.49;99963.69;4999687;28;1804;-32
2022/02/17 12:16:18;;;;;;;;;;;;;;;19.70;60.93;99961.13;5002313;28;1596;-32
2022/02/17 12:18:52;;;;;;;;;;;;;;;19.68;60.52;99965.81;5002253;28;1433;-33
2022/02/17 12:21:22;;;;;;;;;;;;;;;19.68;60.12;99955.06;4996543;28;1054;-32
2022/02/17 12:23:48;;;;;;;;;;;;;;;19.67;60.95;99966.78;5002903;28;1958;-32
2022/02/17 12:26:39;;;;;;;;;;;;;;;19.70;61.03;99966.47;5006889;28;1688;-32
2022/02/17 12:29:26;;;;;;;;;;;;;;;19.64;60.98;99956.41;5006233;28;1736;-32
2022/02/17 12:31:59;;;;;;;;;;;;;;;19.62;60.51;99955.72;5007462;28;1597;-32
2022/02/17 12:34:32;;;;;;;;;;;;;;;19.64;60.68;99948.34;5009350;28;1529;-32
2022/02/17 12:37:00;;;;;;;;;;;;;;;19.64;60.92;99940.31;5009118;28;1342;-32
2022/02/17 12:39:30;;;;;;;;;;;;;;;19.63;61.10;99949.34;5004227;28;1406;-32
2022/02/17 12:41:58;;;;;;;;;;;;;;;19.62;60.43;99931.56;5008526;28;1710;-32
2022/02/17 12:44:25;;;;;;;;;;;;;;;19.61;61.05;99930.72;4998027;28;1977;-33
2022/02/17 12:46:54;;;;;;;;;;;;;;;19.62;60.77;99934.25;5008542;28;1732;-32
2022/02/17 12:49:21;;;;;;;;;;;;;;;19.60;60.44;99926.38;5004033;28;1593;-32
2022/02/17 12:51:53;;;;;;;;;;;;;;;19.66;60.90;99917.69;5008079;28;1641;-32
2022/02/17 12:54:24;;;;;;;;;;;;;;;19.67;60.86;99918.50;5010211;28;1337;-32
2022/02/17 12:56:53;;;;;;;;;;;;;;;19.66;60.51;99912.31;5008214;28;1411;-32
2022/02/17 12:59:24;;;;;;;;;;;;;;;19.75;60.64;99915.88;4995492;28;1064;-32
2022/02/17 13:01:52;;;;;;;;;;;;;;;19.68;60.72;99896.91;5007053;28;1908;-32
2022/02/17 13:04:20;;;;;;;;;;;;;;;19.64;60.79;99898.22;5011737;28;1903;-32
2022/02/17 13:06:47;;;;;;;;;;;;;;;19.68;60.63;99910.31;5010033;28;1425;-32
2022/02/17 13:09:19;;;;;;;;;;;;;;;19.66;60.50;99896.22;4999181;28;1421;-32
2022/02/17 13:11:51;;;;;;;;;;;;;;;19.60;60.15;99893.34;4996053;28;1697;-32
2022/02/17 13:14:20;;;;;;;;;;;;;;;19.59;60.88;99888.97;5004573;28;1083;-32
2022/02/17 13:16:47;;;;;;;;;;;;;;;19.61;59.84;99878.91;5002019;28;1791;-32
2022/02/17 13:19:36;;;;;;;;;;;;;;;19.63;60.77;99874.22;5006372;28;1636;-32
2022/02/17 13:22:04;;;;;;;;;;;;;;;19.67;60.93;99875.59;5012714;28;1083;-32
2022/02/17 13:24:34;;;;;;;;;;;;;;;19.68;60.41;99855.81;5003002;28;1906;-32
2022/02/17 13:27:07;;;;;;;;;;;;;;;19.64;60.70;99849.09;5001315;28;1795;-32
2022/02/17 13:29:36;;;;;;;;;;;;;;;19.78;59.72;99845.84;5005999;28;1764;-32